Time;durP1;ratioP1;P1;durP2;ratioP2;P2;SDS_P1;SDS_P2;PMS_P1;PMS_P2;Temp;Humidity;BMP_temperature;BMP_pressure;BME280_temperature;BME280_humidity;BME280_pressure;Samples;Min_cycle;Max_cycle;Signal;HPM_P1;HPM_P2
2022/01/31 00:00:09;;;;;;;;;;;1.60;99.90;;;;;;4158522;28;20019;-59
2022/01/31 00:02:14;;;;;;;;;;;1.50;99.90;;;;;;4157331;28;19921;-58
2022/01/31 00:04:15;;;;;;;;;;;1.50;99.90;;;;;;4158096;28;19975;-55
2022/01/31 00:06:16;;;;;;;;;;;1.50;99.90;;;;;;4157596;28;20262;-58
2022/01/31 00:08:22;;;;;;;;;;;1.50;99.90;;;;;;4158688;28;19924;-58
2022/01/31 00:10:28;;;;;;;;;;;1.50;99.90;;;;;;4156635;28;19917;-59
2022/01/31 00:12:33;;;;;;;;;;;1.50;99.90;;;;;;4158361;28;19917;-57
2022/01/31 00:16:38;;;;;;;;;;;1.60;99.90;;;;;;4157295;28;19913;-62
2022/01/31 00:18:40;;;;;;;;;;;1.60;99.90;;;;;;4157463;28;19917;-62
2022/01/31 00:20:41;;;;;;;;;;;1.60;99.90;;;;;;4157992;28;19909;-58
2022/01/31 00:22:42;;;;;;;;;;;1.70;99.90;;;;;;4156616;28;20373;-55
2022/01/31 00:24:43;;;;;;;;;;;1.70;99.90;;;;;;4157609;28;19909;-50
2022/01/31 00:26:44;;;;;;;;;;;1.80;99.90;;;;;;4157514;28;19905;-61
2022/01/31 00:28:46;;;;;;;;;;;1.80;99.90;;;;;;4157093;28;19913;-59
2022/01/31 00:30:47;;;;;;;;;;;1.90;99.90;;;;;;4157145;28;20328;-53
2022/01/31 00:32:48;;;;;;;;;;;1.90;99.90;;;;;;4157292;28;19913;-55
2022/01/31 00:34:49;;;;;;;;;;;2.00;99.90;;;;;;4157794;28;19935;-54
2022/01/31 00:36:50;;;;;;;;;;;2.00;99.90;;;;;;4139265;28;20306;-54
2022/01/31 00:38:51;;;;;;;;;;;2.00;99.90;;;;;;4158146;28;19955;-56
2022/01/31 00:40:51;;;;;;;;;;;2.00;99.90;;;;;;4157181;28;19913;-55
2022/01/31 00:42:52;;;;;;;;;;;2.00;99.90;;;;;;4157633;28;19916;-59
2022/01/31 00:44:56;;;;;;;;;;;2.00;99.90;;;;;;4156713;28;19921;-53
2022/01/31 00:47:02;;;;;;;;;;;1.90;99.90;;;;;;4142491;28;19983;-55
2022/01/31 00:49:03;;;;;;;;;;;2.00;99.90;;;;;;4140670;28;19930;-57
2022/01/31 00:51:04;;;;;;;;;;;2.00;99.90;;;;;;4141547;28;19948;-58
2022/01/31 00:53:05;;;;;;;;;;;2.00;99.90;;;;;;4140945;28;19909;-54
2022/01/31 00:55:07;;;;;;;;;;;2.00;99.90;;;;;;4141194;28;19960;-59
2022/01/31 00:57:08;;;;;;;;;;;2.00;99.90;;;;;;4153801;28;19913;-59
2022/01/31 00:59:09;;;;;;;;;;;2.00;99.90;;;;;;4156878;28;19916;-58
2022/01/31 01:01:10;;;;;;;;;;;2.00;99.90;;;;;;4157941;28;20440;-57
2022/01/31 01:03:11;;;;;;;;;;;2.00;99.90;;;;;;4156181;28;19936;-61
2022/01/31 01:05:13;;;;;;;;;;;2.00;99.90;;;;;;4158248;28;19913;-59
2022/01/31 01:07:14;;;;;;;;;;;2.00;99.90;;;;;;4156565;28;19913;-61
2022/01/31 01:09:15;;;;;;;;;;;2.00;99.90;;;;;;4157230;28;19967;-57
2022/01/31 01:11:16;;;;;;;;;;;2.00;99.90;;;;;;4156747;28;19971;-55
2022/01/31 01:13:17;;;;;;;;;;;2.00;99.90;;;;;;4157827;28;19917;-58
2022/01/31 01:15:18;;;;;;;;;;;2.00;99.90;;;;;;4155941;28;19960;-61
2022/01/31 01:17:19;;;;;;;;;;;2.00;99.90;;;;;;4158286;28;19913;-63
2022/01/31 01:19:20;;;;;;;;;;;2.00;99.90;;;;;;4156758;28;19913;-60
2022/01/31 01:21:21;;;;;;;;;;;1.90;99.90;;;;;;4157291;28;19913;-51
2022/01/31 01:23:24;;;;;;;;;;;1.90;99.90;;;;;;4139324;28;19921;-59
2022/01/31 01:25:25;;;;;;;;;;;2.00;99.90;;;;;;4157347;28;20495;-59
2022/01/31 01:27:27;;;;;;;;;;;2.00;99.90;;;;;;4156470;28;19960;-55
2022/01/31 01:29:27;;;;;;;;;;;2.00;99.90;;;;;;4156728;28;20365;-56
2022/01/31 01:31:28;;;;;;;;;;;2.00;99.90;;;;;;4157791;28;20417;-59
2022/01/31 01:33:36;;;;;;;;;;;2.00;99.90;;;;;;4156696;28;19917;-58
2022/01/31 01:35:39;;;;;;;;;;;2.00;99.90;;;;;;4157492;28;19921;-60
2022/01/31 01:37:40;;;;;;;;;;;2.10;99.90;;;;;;4156260;28;19959;-63
2022/01/31 01:39:42;;;;;;;;;;;2.10;99.90;;;;;;4157967;28;19913;-55
2022/01/31 01:41:43;;;;;;;;;;;2.00;99.90;;;;;;4156349;28;19913;-61
2022/01/31 01:43:44;;;;;;;;;;;2.10;99.90;;;;;;4157472;28;19921;-62
2022/01/31 01:45:45;;;;;;;;;;;2.00;99.90;;;;;;4152585;28;19921;-53
2022/01/31 01:47:46;;;;;;;;;;;2.10;99.90;;;;;;4144139;28;19922;-56
2022/01/31 01:49:47;;;;;;;;;;;2.10;99.90;;;;;;4144283;28;19921;-60
2022/01/31 01:51:48;;;;;;;;;;;2.10;99.90;;;;;;4160104;28;20332;-62
2022/01/31 01:53:49;;;;;;;;;;;2.10;99.90;;;;;;4158907;28;19917;-62
2022/01/31 01:55:52;;;;;;;;;;;2.00;99.90;;;;;;4159607;28;19968;-54
2022/01/31 01:57:54;;;;;;;;;;;2.00;99.90;;;;;;4160091;28;20739;-53
2022/01/31 01:59:57;;;;;;;;;;;2.00;99.90;;;;;;4159345;28;20325;-57
2022/01/31 02:01:58;;;;;;;;;;;2.00;99.90;;;;;;4160099;28;20379;-63
2022/01/31 02:03:59;;;;;;;;;;;2.00;99.90;;;;;;4159778;28;19921;-62
2022/01/31 02:06:00;;;;;;;;;;;2.00;99.90;;;;;;4160129;28;19920;-58
2022/01/31 02:08:01;;;;;;;;;;;2.00;99.90;;;;;;4159304;28;20270;-53
2022/01/31 02:10:06;;;;;;;;;;;2.00;99.90;;;;;;4156457;28;19928;-59
2022/01/31 02:12:07;;;;;;;;;;;2.00;99.90;;;;;;4157631;28;20420;-58
2022/01/31 02:14:08;;;;;;;;;;;2.00;99.90;;;;;;4155825;28;19913;-56
2022/01/31 02:16:09;;;;;;;;;;;2.00;99.90;;;;;;4157766;28;19924;-50
2022/01/31 02:18:11;;;;;;;;;;;2.00;99.90;;;;;;4160341;28;20508;-56
2022/01/31 02:20:12;;;;;;;;;;;2.20;99.90;;;;;;4158818;28;19909;-54
2022/01/31 02:22:12;;;;;;;;;;;2.20;99.90;;;;;;4160544;28;20365;-54
2022/01/31 02:24:13;;;;;;;;;;;2.20;99.90;;;;;;4158194;28;19913;-54
2022/01/31 02:26:14;;;;;;;;;;;2.20;99.90;;;;;;4159974;28;19917;-56
2022/01/31 02:28:15;;;;;;;;;;;2.20;99.90;;;;;;4159305;28;19951;-57
2022/01/31 02:30:17;;;;;;;;;;;2.20;99.90;;;;;;4159195;28;19921;-53
2022/01/31 02:32:20;;;;;;;;;;;2.20;99.90;;;;;;4150100;28;20779;-52
2022/01/31 02:34:21;;;;;;;;;;;2.20;99.90;;;;;;4142893;28;19918;-53
2022/01/31 02:36:22;;;;;;;;;;;2.20;99.90;;;;;;4143673;28;19914;-60
2022/01/31 02:38:23;;;;;;;;;;;2.20;99.90;;;;;;4141740;28;19968;-53
2022/01/31 02:40:24;;;;;;;;;;;2.30;99.90;;;;;;4126058;28;20032;-55
2022/01/31 02:42:26;;;;;;;;;;;2.20;99.90;;;;;;4133858;28;19921;-58
2022/01/31 02:44:27;;;;;;;;;;;2.20;99.90;;;;;;4160037;28;20339;-58
2022/01/31 02:46:28;;;;;;;;;;;2.20;99.90;;;;;;4158852;28;19913;-55
2022/01/31 02:48:32;;;;;;;;;;;2.20;99.90;;;;;;4157617;28;20051;-53
2022/01/31 02:50:33;;;;;;;;;;;2.20;99.90;;;;;;4157136;28;19921;-53
2022/01/31 02:52:36;;;;;;;;;;;2.20;99.90;;;;;;4160372;28;20361;-55
2022/01/31 02:54:37;;;;;;;;;;;2.20;99.90;;;;;;4158853;28;19963;-55
2022/01/31 02:56:40;;;;;;;;;;;2.10;99.90;;;;;;4159151;28;20358;-59
2022/01/31 02:58:41;;;;;;;;;;;2.20;99.90;;;;;;4157920;28;19975;-60
2022/01/31 03:00:42;;;;;;;;;;;2.20;99.90;;;;;;4159454;28;19983;-58
2022/01/31 03:02:43;;;;;;;;;;;2.10;99.90;;;;;;4159000;28;19956;-52
2022/01/31 03:04:44;;;;;;;;;;;2.10;99.90;;;;;;4158350;28;19928;-53
2022/01/31 03:06:49;;;;;;;;;;;2.10;99.90;;;;;;4159409;28;19909;-55
2022/01/31 03:08:50;;;;;;;;;;;2.20;99.90;;;;;;4158786;28;20360;-60
2022/01/31 03:10:51;;;;;;;;;;;2.20;99.90;;;;;;4141487;28;19910;-58
2022/01/31 03:12:52;;;;;;;;;;;2.20;99.90;;;;;;4158751;28;20320;-57
2022/01/31 03:14:53;;;;;;;;;;;2.20;99.90;;;;;;4159967;28;19955;-60
2022/01/31 03:16:54;;;;;;;;;;;2.10;99.90;;;;;;4157696;28;19912;-56
2022/01/31 03:18:55;;;;;;;;;;;2.10;99.90;;;;;;4158947;28;20235;-53
2022/01/31 03:20:56;;;;;;;;;;;2.10;99.90;;;;;;4157433;28;20332;-53
2022/01/31 03:22:57;;;;;;;;;;;2.10;99.90;;;;;;4154432;28;19963;-58
2022/01/31 03:24:58;;;;;;;;;;;2.10;99.90;;;;;;4150793;28;19913;-56
2022/01/31 03:26:59;;;;;;;;;;;2.10;99.90;;;;;;4159023;28;19913;-56
2022/01/31 03:29:00;;;;;;;;;;;2.10;99.90;;;;;;4157999;28;20036;-56
2022/01/31 03:31:01;;;;;;;;;;;2.10;99.90;;;;;;4158228;28;19993;-57
2022/01/31 03:33:02;;;;;;;;;;;2.10;99.90;;;;;;4158012;28;19931;-54
2022/01/31 03:35:04;;;;;;;;;;;2.10;99.90;;;;;;4158347;28;19913;-54
2022/01/31 03:37:05;;;;;;;;;;;2.10;99.90;;;;;;4158486;28;19964;-52
2022/01/31 03:39:06;;;;;;;;;;;2.20;99.90;;;;;;4157609;28;19967;-60
2022/01/31 03:41:08;;;;;;;;;;;2.20;99.90;;;;;;4158718;28;19917;-55
2022/01/31 03:43:09;;;;;;;;;;;2.20;99.90;;;;;;4157387;28;19945;-59
2022/01/31 03:45:11;;;;;;;;;;;2.20;99.90;;;;;;4159017;28;20482;-56
2022/01/31 03:47:11;;;;;;;;;;;2.10;99.90;;;;;;4157918;28;19923;-58
2022/01/31 03:49:12;;;;;;;;;;;2.10;99.90;;;;;;4158899;28;20476;-60
2022/01/31 03:51:13;;;;;;;;;;;2.10;99.90;;;;;;4156986;28;20385;-56
2022/01/31 03:53:14;;;;;;;;;;;2.20;99.90;;;;;;4159231;28;19932;-61
2022/01/31 03:55:15;;;;;;;;;;;2.10;99.90;;;;;;4156845;28;19971;-55
2022/01/31 03:57:16;;;;;;;;;;;2.10;99.90;;;;;;4158057;28;19921;-56
2022/01/31 03:59:17;;;;;;;;;;;2.10;99.90;;;;;;4156865;28;20008;-57
2022/01/31 04:01:18;;;;;;;;;;;2.20;99.90;;;;;;4158073;28;19913;-60
2022/01/31 04:03:19;;;;;;;;;;;2.20;99.90;;;;;;4157942;28;19921;-59
2022/01/31 04:05:20;;;;;;;;;;;2.20;99.90;;;;;;4140217;28;19917;-58
2022/01/31 04:07:21;;;;;;;;;;;2.10;99.90;;;;;;4157719;28;20358;-59
2022/01/31 04:09:22;;;;;;;;;;;2.10;99.90;;;;;;4157091;28;19913;-53
2022/01/31 04:11:23;;;;;;;;;;;2.10;99.90;;;;;;4157557;28;19917;-51
2022/01/31 04:13:26;;;;;;;;;;;2.10;99.90;;;;;;4157493;28;20283;-55
2022/01/31 04:15:27;;;;;;;;;;;2.10;99.90;;;;;;4158355;28;20838;-60
2022/01/31 04:17:30;;;;;;;;;;;2.00;99.90;;;;;;4156990;28;19939;-57
2022/01/31 04:19:30;;;;;;;;;;;2.10;99.90;;;;;;4158123;28;19917;-57
2022/01/31 04:21:31;;;;;;;;;;;2.00;99.90;;;;;;4157015;28;19913;-56
2022/01/31 04:23:32;;;;;;;;;;;2.00;99.90;;;;;;4148680;28;19945;-54
2022/01/31 04:26:02;;;;;;;;;;;2.10;99.90;;;;;;4140330;28;20286;-62
2022/01/31 04:28:04;;;;;;;;;;;2.10;99.90;;;;;;4141360;28;20352;-56
2022/01/31 04:30:07;;;;;;;;;;;2.10;99.90;;;;;;4156693;28;19921;-56
2022/01/31 04:32:07;;;;;;;;;;;2.00;99.90;;;;;;4158171;28;20663;-56
2022/01/31 04:34:09;;;;;;;;;;;2.00;99.90;;;;;;4156908;28;19913;-55
2022/01/31 04:36:10;;;;;;;;;;;2.00;99.90;;;;;;4157840;28;19917;-55
2022/01/31 04:38:11;;;;;;;;;;;1.90;99.90;;;;;;4157229;28;19913;-56
2022/01/31 04:40:14;;;;;;;;;;;1.90;99.90;;;;;;4157144;28;20339;-65
2022/01/31 04:42:15;;;;;;;;;;;1.90;99.90;;;;;;4157027;28;19967;-58
2022/01/31 04:44:16;;;;;;;;;;;1.80;99.90;;;;;;4157685;28;19990;-61
2022/01/31 04:46:18;;;;;;;;;;;1.80;99.90;;;;;;4157366;28;19967;-63
2022/01/31 04:48:20;;;;;;;;;;;1.70;99.90;;;;;;4157002;28;19925;-64
2022/01/31 04:50:21;;;;;;;;;;;1.70;99.90;;;;;;4157865;28;19975;-59
2022/01/31 04:52:21;;;;;;;;;;;1.80;99.90;;;;;;4156361;28;19916;-63
2022/01/31 04:54:22;;;;;;;;;;;1.80;99.90;;;;;;4157540;28;20320;-58
2022/01/31 04:56:23;;;;;;;;;;;1.80;99.90;;;;;;4156288;28;19971;-63
2022/01/31 04:58:25;;;;;;;;;;;1.80;99.90;;;;;;4157546;28;19909;-60
2022/01/31 05:00:26;;;;;;;;;;;1.80;99.90;;;;;;4155583;28;19928;-63
2022/01/31 05:02:27;;;;;;;;;;;1.90;99.90;;;;;;4157678;28;19917;-62
2022/01/31 05:04:28;;;;;;;;;;;1.90;99.90;;;;;;4156755;28;19924;-64
2022/01/31 05:06:34;;;;;;;;;;;1.90;99.90;;;;;;4157809;28;20008;-64
2022/01/31 05:08:36;;;;;;;;;;;1.90;99.90;;;;;;4155643;28;20415;-60
2022/01/31 05:10:43;;;;;;;;;;;1.90;99.90;;;;;;4156058;28;19913;-61
2022/01/31 05:12:44;;;;;;;;;;;1.90;99.90;;;;;;4156629;28;20302;-55
2022/01/31 05:14:45;;;;;;;;;;;2.00;99.90;;;;;;4157069;28;20035;-56
2022/01/31 05:16:46;;;;;;;;;;;2.00;99.90;;;;;;4156758;28;19917;-58
2022/01/31 05:18:47;;;;;;;;;;;2.00;99.90;;;;;;4156124;28;20388;-58
2022/01/31 05:20:48;;;;;;;;;;;2.00;99.90;;;;;;4158144;28;19913;-60
2022/01/31 05:22:49;;;;;;;;;;;2.00;99.90;;;;;;4156103;28;19979;-63
2022/01/31 05:24:50;;;;;;;;;;;2.00;99.90;;;;;;4144111;28;19920;-59
2022/01/31 05:26:52;;;;;;;;;;;2.00;99.90;;;;;;4141975;28;20366;-63
2022/01/31 05:28:53;;;;;;;;;;;2.10;99.90;;;;;;4143832;28;19917;-59
2022/01/31 05:30:54;;;;;;;;;;;2.00;99.90;;;;;;4142793;28;19925;-59
2022/01/31 05:32:55;;;;;;;;;;;2.10;99.90;;;;;;4144260;28;19928;-56
2022/01/31 05:34:56;;;;;;;;;;;2.10;99.90;;;;;;4150178;28;19913;-62
2022/01/31 05:36:57;;;;;;;;;;;2.10;99.90;;;;;;4159920;28;20434;-62
2022/01/31 05:38:59;;;;;;;;;;;2.10;99.90;;;;;;4159355;28;20360;-57
2022/01/31 05:41:04;;;;;;;;;;;2.10;99.90;;;;;;4160012;28;19913;-58
2022/01/31 05:43:05;;;;;;;;;;;2.00;99.90;;;;;;4159019;28;20039;-60
2022/01/31 05:45:07;;;;;;;;;;;2.00;99.90;;;;;;4160486;28;19940;-57
2022/01/31 05:47:08;;;;;;;;;;;2.00;99.90;;;;;;4141727;28;19913;-56
2022/01/31 05:49:09;;;;;;;;;;;2.00;99.90;;;;;;4158770;28;19921;-58
2022/01/31 05:51:14;;;;;;;;;;;1.90;99.90;;;;;;4159205;28;19924;-56
2022/01/31 05:53:15;;;;;;;;;;;1.90;99.90;;;;;;4158835;28;19947;-62
2022/01/31 05:55:15;;;;;;;;;;;2.00;99.90;;;;;;4159379;28;19971;-58
2022/01/31 05:57:16;;;;;;;;;;;1.90;99.90;;;;;;4157935;28;20342;-59
2022/01/31 05:59:17;;;;;;;;;;;1.90;99.90;;;;;;4160441;28;19913;-57
2022/01/31 06:01:18;;;;;;;;;;;1.90;99.90;;;;;;4158284;28;19987;-56
2022/01/31 06:03:19;;;;;;;;;;;1.90;99.90;;;;;;4159764;28;19932;-59
2022/01/31 06:05:20;;;;;;;;;;;1.80;99.90;;;;;;4159347;28;19909;-55
2022/01/31 06:07:21;;;;;;;;;;;1.80;99.90;;;;;;4155450;28;19917;-49
2022/01/31 06:09:22;;;;;;;;;;;1.80;99.90;;;;;;4156609;28;20286;-52
2022/01/31 06:11:25;;;;;;;;;;;1.80;99.90;;;;;;4159678;28;20423;-51
2022/01/31 06:13:29;;;;;;;;;;;1.80;99.90;;;;;;4158501;28;19909;-53
2022/01/31 06:15:30;;;;;;;;;;;1.80;99.90;;;;;;4142125;28;19917;-56
2022/01/31 06:17:31;;;;;;;;;;;1.80;99.90;;;;;;4158459;28;20286;-53
2022/01/31 06:19:32;;;;;;;;;;;1.80;99.90;;;;;;4158965;28;20384;-55
2022/01/31 06:21:33;;;;;;;;;;;1.80;99.90;;;;;;4158599;28;19984;-54
2022/01/31 06:23:34;;;;;;;;;;;1.80;99.90;;;;;;4148528;28;19922;-54
2022/01/31 06:25:35;;;;;;;;;;;1.80;99.90;;;;;;4146765;28;19924;-54
2022/01/31 06:27:36;;;;;;;;;;;1.70;99.90;;;;;;4157561;28;19932;-53
2022/01/31 06:29:37;;;;;;;;;;;1.80;99.90;;;;;;4158930;28;19941;-51
2022/01/31 06:31:38;;;;;;;;;;;1.90;99.90;;;;;;4157204;28;19928;-55
2022/01/31 06:33:39;;;;;;;;;;;2.10;99.90;;;;;;4158581;28;19944;-51
2022/01/31 06:35:40;;;;;;;;;;;2.30;99.90;;;;;;4158207;28;20019;-53
2022/01/31 06:37:41;;;;;;;;;;;2.40;99.90;;;;;;4158889;28;19917;-53
2022/01/31 06:39:42;;;;;;;;;;;2.40;99.90;;;;;;4158010;28;19913;-57
2022/01/31 06:41:43;;;;;;;;;;;2.60;99.90;;;;;;4142004;28;20290;-61
2022/01/31 06:43:44;;;;;;;;;;;2.90;99.90;;;;;;4157770;28;19921;-61
2022/01/31 06:45:45;;;;;;;;;;;2.90;99.90;;;;;;4158748;28;19913;-55
2022/01/31 06:47:46;;;;;;;;;;;3.10;99.90;;;;;;4156489;28;19971;-61
2022/01/31 06:49:47;;;;;;;;;;;3.20;99.90;;;;;;4158630;28;19916;-57
2022/01/31 06:51:48;;;;;;;;;;;3.40;99.90;;;;;;4157997;28;19909;-50
2022/01/31 06:53:49;;;;;;;;;;;3.60;99.90;;;;;;4164200;28;19985;-55
2022/01/31 06:55:50;;;;;;;;;;;3.70;99.90;;;;;;4175616;28;19909;-61
2022/01/31 06:57:51;;;;;;;;;;;3.50;99.90;;;;;;4174114;28;19909;-60
2022/01/31 06:59:52;;;;;;;;;;;3.70;99.90;;;;;;4174281;28;19913;-58
2022/01/31 07:01:54;;;;;;;;;;;4.00;99.90;;;;;;4173556;28;19909;-61
2022/01/31 07:03:55;;;;;;;;;;;4.20;99.90;;;;;;4158107;28;19995;-59
2022/01/31 07:05:56;;;;;;;;;;;4.50;99.90;;;;;;4157739;28;20420;-52
2022/01/31 07:07:57;;;;;;;;;;;4.70;99.90;;;;;;4158302;28;19917;-57
2022/01/31 07:10:01;;;;;;;;;;;4.80;99.90;;;;;;4157712;28;19968;-57
2022/01/31 07:12:05;;;;;;;;;;;4.90;99.90;;;;;;4157819;28;19917;-56
2022/01/31 07:14:13;;;;;;;;;;;5.10;99.70;;;;;;4166850;28;19913;-58
2022/01/31 07:16:14;;;;;;;;;;;5.10;99.10;;;;;;4163978;28;19983;-60
2022/01/31 07:18:15;;;;;;;;;;;5.20;99.40;;;;;;4157822;28;19909;-56
2022/01/31 07:20:37;;;;;;;;;;;5.50;99.20;;;;;;4158575;28;20027;-55
2022/01/31 07:22:39;;;;;;;;;;;5.60;98.40;;;;;;4157454;28;19921;-55
2022/01/31 07:25:01;;;;;;;;;;;5.50;98.00;;;;;;4157362;28;19925;-54
2022/01/31 07:27:03;;;;;;;;;;;5.30;98.70;;;;;;4157494;28;19913;-53
2022/01/31 07:29:04;;;;;;;;;;;4.80;98.10;;;;;;4158500;28;19917;-54
2022/01/31 07:31:05;;;;;;;;;;;4.60;99.10;;;;;;4157369;28;19951;-58
2022/01/31 07:33:09;;;;;;;;;;;4.30;99.50;;;;;;4158317;28;19920;-60
2022/01/31 07:35:10;;;;;;;;;;;4.10;99.90;;;;;;4157938;28;19963;-59
2022/01/31 07:37:11;;;;;;;;;;;3.90;99.90;;;;;;4157971;28;20004;-52
2022/01/31 07:39:12;;;;;;;;;;;3.70;99.90;;;;;;4156891;28;19959;-57
2022/01/31 07:41:14;;;;;;;;;;;3.70;99.90;;;;;;4157774;28;19963;-61
2022/01/31 07:43:15;;;;;;;;;;;4.00;99.90;;;;;;4158060;28;19947;-58
2022/01/31 07:45:16;;;;;;;;;;;4.00;99.90;;;;;;4157648;28;20378;-56
2022/01/31 07:47:17;;;;;;;;;;;4.10;99.90;;;;;;4157544;28;19963;-53
2022/01/31 07:49:21;;;;;;;;;;;4.40;99.60;;;;;;4156982;28;20395;-55
2022/01/31 07:51:22;;;;;;;;;;;4.60;99.20;;;;;;4157344;28;19913;-62
2022/01/31 07:53:23;;;;;;;;;;;4.70;99.00;;;;;;4156799;28;19967;-63
2022/01/31 07:55:24;;;;;;;;;;;4.60;98.80;;;;;;4157333;28;19959;-48
2022/01/31 07:57:25;;;;;;;;;;;4.60;98.90;;;;;;4157080;28;20298;-49
2022/01/31 07:59:26;;;;;;;;;;;4.80;98.90;;;;;;4157643;28;19971;-53
2022/01/31 08:01:27;;;;;;;;;;;5.00;98.00;;;;;;4156248;28;20289;-53
2022/01/31 08:03:28;;;;;;;;;;;5.10;98.20;;;;;;4157267;28;19921;-55
2022/01/31 08:05:29;;;;;;;;;;;5.10;97.70;;;;;;4156889;28;19913;-57
2022/01/31 08:07:30;;;;;;;;;;;5.30;97.40;;;;;;4157524;28;19913;-58
2022/01/31 08:09:30;;;;;;;;;;;5.30;97.50;;;;;;4139937;28;19932;-61
2022/01/31 08:11:33;;;;;;;;;;;5.30;96.80;;;;;;4156528;28;19956;-61
2022/01/31 08:13:35;;;;;;;;;;;5.30;97.30;;;;;;4157339;28;19919;-55
2022/01/31 08:15:48;;;;;;;;;;;5.30;97.40;;;;;;4156614;28;20344;-53
2022/01/31 08:17:49;;;;;;;;;;;5.30;96.50;;;;;;4157738;28;20297;-63
2022/01/31 08:19:50;;;;;;;;;;;5.40;96.80;;;;;;4155970;28;19978;-56
2022/01/31 08:21:51;;;;;;;;;;;5.40;96.80;;;;;;4157004;28;19913;-62
2022/01/31 08:23:52;;;;;;;;;;;5.40;97.10;;;;;;4147253;28;19975;-55
2022/01/31 08:25:53;;;;;;;;;;;5.40;96.40;;;;;;4140197;28;19917;-55
2022/01/31 08:28:00;;;;;;;;;;;5.30;96.40;;;;;;4155893;28;19909;-54
2022/01/31 08:30:08;;;;;;;;;;;5.20;96.10;;;;;;4156242;28;19960;-56
2022/01/31 08:32:17;;;;;;;;;;;5.10;96.40;;;;;;4156296;28;20023;-54
2022/01/31 08:34:24;;;;;;;;;;;5.00;96.20;;;;;;4157470;28;19917;-54
2022/01/31 08:36:34;;;;;;;;;;;4.90;96.40;;;;;;4155858;28;19940;-50
2022/01/31 08:38:36;;;;;;;;;;;5.00;96.90;;;;;;4157272;28;20296;-55
2022/01/31 08:40:37;;;;;;;;;;;5.00;96.90;;;;;;4156492;28;19917;-54
2022/01/31 08:42:38;;;;;;;;;;;5.10;96.70;;;;;;4157209;28;19965;-54
2022/01/31 08:44:39;;;;;;;;;;;5.20;96.40;;;;;;4155567;28;20059;-56
2022/01/31 08:46:40;;;;;;;;;;;5.10;96.00;;;;;;4157465;28;19985;-55
2022/01/31 08:48:42;;;;;;;;;;;5.10;95.70;;;;;;4156432;28;19991;-60
2022/01/31 08:50:43;;;;;;;;;;;5.00;95.70;;;;;;4138671;28;20759;-57
2022/01/31 08:52:43;;;;;;;;;;;5.00;96.10;;;;;;4157314;28;19996;-54
2022/01/31 08:54:44;;;;;;;;;;;5.20;95.50;;;;;;4155517;28;19917;-59
2022/01/31 08:56:45;;;;;;;;;;;4.90;95.70;;;;;;4157546;28;19944;-57
2022/01/31 08:58:48;;;;;;;;;;;4.70;95.60;;;;;;4155892;28;19971;-62
2022/01/31 09:00:58;;;;;;;;;;;4.70;95.80;;;;;;4157651;28;19959;-58
2022/01/31 09:05:12;;;;;;;;;;;4.40;96.00;;;;;;4156748;28;19921;-58
2022/01/31 09:07:21;;;;;;;;;;;4.40;96.30;;;;;;4161218;28;19917;-60
2022/01/31 09:09:23;;;;;;;;;;;4.30;96.00;;;;;;4174239;28;19954;-58
2022/01/31 09:11:25;;;;;;;;;;;4.40;96.30;;;;;;4166650;28;20786;-57
2022/01/31 09:13:26;;;;;;;;;;;4.30;96.20;;;;;;4157957;28;20397;-62
2022/01/31 09:15:27;;;;;;;;;;;4.40;96.10;;;;;;4156534;28;19959;-56
2022/01/31 09:17:28;;;;;;;;;;;4.40;95.80;;;;;;4157626;28;19917;-57
2022/01/31 09:19:29;;;;;;;;;;;4.60;96.00;;;;;;4156082;28;19917;-55
2022/01/31 09:21:31;;;;;;;;;;;4.70;95.70;;;;;;4154932;28;20019;-56
2022/01/31 09:23:32;;;;;;;;;;;4.80;95.40;;;;;;4137892;28;20424;-59
2022/01/31 09:25:33;;;;;;;;;;;4.80;95.30;;;;;;4155558;28;19925;-53
2022/01/31 09:27:34;;;;;;;;;;;4.90;95.30;;;;;;4159971;28;19913;-54
2022/01/31 09:29:35;;;;;;;;;;;5.00;95.10;;;;;;4171860;28;19919;-55
2022/01/31 09:31:36;;;;;;;;;;;5.20;95.10;;;;;;4153771;28;19924;-53
2022/01/31 09:33:37;;;;;;;;;;;5.40;94.80;;;;;;4172017;28;19913;-55
2022/01/31 09:35:38;;;;;;;;;;;5.50;94.50;;;;;;4172869;28;19970;-53
2022/01/31 09:37:39;;;;;;;;;;;5.50;94.30;;;;;;4155503;28;20322;-54
2022/01/31 09:39:42;;;;;;;;;;;5.50;94.30;;;;;;4157321;28;19913;-55
2022/01/31 09:41:46;;;;;;;;;;;5.40;93.90;;;;;;4156117;28;19917;-52
2022/01/31 09:48:36;;;;;;;;;;;5.20;93.90;;;;;;4125421;28;20026;-57
2022/01/31 09:50:37;;;;;;;;;;;5.20;94.30;;;;;;4154795;28;19963;-57
2022/01/31 09:52:38;;;;;;;;;;;5.20;94.10;;;;;;4156323;28;19917;-58
2022/01/31 09:54:38;;;;;;;;;;;5.20;94.50;;;;;;4154998;28;19913;-56
2022/01/31 09:56:41;;;;;;;;;;;5.30;94.10;;;;;;4156704;28;20747;-58
2022/01/31 09:58:42;;;;;;;;;;;5.40;93.90;;;;;;4155654;28;19987;-56
2022/01/31 10:00:43;;;;;;;;;;;5.40;93.50;;;;;;4139907;28;19913;-54
2022/01/31 10:03:03;;;;;;;;;;;5.30;93.20;;;;;;4156072;28;19913;-55
2022/01/31 10:05:04;;;;;;;;;;;5.20;93.60;;;;;;4157308;28;20432;-56
2022/01/31 10:07:05;;;;;;;;;;;5.30;93.30;;;;;;4157555;28;19940;-53
2022/01/31 10:09:07;;;;;;;;;;;5.30;93.50;;;;;;4159577;28;19960;-61
2022/01/31 10:11:20;;;;;;;;;;;5.30;93.40;;;;;;4158164;28;19967;-56
2022/01/31 10:18:20;;;;;;;;;;;5.40;92.90;;;;;;4159193;28;20324;-51
2022/01/31 10:20:25;;;;;;;;;;;5.30;93.20;;;;;;4158491;28;19917;-52
2022/01/31 10:22:27;;;;;;;;;;;5.30;92.80;;;;;;4158588;28;19913;-57
2022/01/31 10:24:29;;;;;;;;;;;5.20;92.70;;;;;;4157582;28;19925;-56
2022/01/31 10:26:32;;;;;;;;;;;5.30;93.00;;;;;;4159494;28;20346;-61
2022/01/31 10:28:37;;;;;;;;;;;5.30;92.60;;;;;;4157741;28;20317;-51
2022/01/31 10:30:39;;;;;;;;;;;5.20;93.00;;;;;;4145421;28;19983;-54
2022/01/31 10:32:42;;;;;;;;;;;5.30;93.80;;;;;;4156884;28;19914;-60
2022/01/31 10:34:51;;;;;;;;;;;5.20;92.90;;;;;;4157161;28;19993;-60
2022/01/31 10:36:52;;;;;;;;;;;5.20;93.00;;;;;;4145452;28;19919;-59
2022/01/31 10:44:46;;;;;;;;;;;4.90;92.60;;;;;;4147822;28;19967;-59
2022/01/31 10:50:41;;;;;;;;;;;4.90;92.70;;;;;;4149307;28;19917;-58
2022/01/31 10:53:13;;;;;;;;;;;5.00;92.30;;;;;;4162875;28;19909;-56
2022/01/31 10:55:15;;;;;;;;;;;4.70;91.80;;;;;;4160830;28;19967;-54
2022/01/31 10:57:19;;;;;;;;;;;4.60;92.60;;;;;;4162055;28;19921;-57
2022/01/31 10:59:37;;;;;;;;;;;4.60;92.50;;;;;;4161141;28;20316;-50
2022/01/31 11:01:38;;;;;;;;;;;4.70;92.50;;;;;;4162542;28;19963;-56
2022/01/31 11:03:40;;;;;;;;;;;4.80;92.70;;;;;;4161389;28;20415;-56
2022/01/31 11:05:41;;;;;;;;;;;4.90;92.60;;;;;;4161909;28;20381;-54
2022/01/31 11:07:42;;;;;;;;;;;4.90;92.90;;;;;;4161517;28;20239;-51
2022/01/31 11:09:45;;;;;;;;;;;5.00;92.40;;;;;;4162031;28;20346;-56
2022/01/31 11:11:47;;;;;;;;;;;5.00;92.10;;;;;;4160584;28;19924;-52
2022/01/31 11:13:48;;;;;;;;;;;5.00;92.10;;;;;;4161817;28;19913;-55
2022/01/31 11:15:49;;;;;;;;;;;5.00;92.10;;;;;;4158293;28;19959;-51
2022/01/31 11:17:55;;;;;;;;;;;5.10;92.10;;;;;;4155763;28;19917;-54
2022/01/31 11:19:57;;;;;;;;;;;5.00;92.10;;;;;;4157539;28;19963;-54
2022/01/31 11:22:01;;;;;;;;;;;5.10;92.20;;;;;;4157793;28;19909;-55
2022/01/31 11:24:04;;;;;;;;;;;5.10;92.10;;;;;;4157116;28;19970;-55
2022/01/31 11:26:07;;;;;;;;;;;5.20;92.20;;;;;;4157029;28;19983;-59
2022/01/31 11:28:09;;;;;;;;;;;5.30;92.10;;;;;;4157963;28;19909;-55
2022/01/31 11:30:11;;;;;;;;;;;5.20;91.70;;;;;;4156873;28;19971;-61
2022/01/31 11:32:12;;;;;;;;;;;5.20;91.30;;;;;;4157598;28;19947;-62
2022/01/31 11:34:13;;;;;;;;;;;5.30;91.70;;;;;;4156963;28;20424;-58
2022/01/31 11:36:14;;;;;;;;;;;5.20;91.30;;;;;;4157976;28;20350;-57
2022/01/31 11:38:16;;;;;;;;;;;5.20;91.40;;;;;;4154124;28;20393;-58
2022/01/31 11:40:17;;;;;;;;;;;5.20;91.60;;;;;;4142262;28;19922;-61
2022/01/31 11:42:20;;;;;;;;;;;5.20;91.00;;;;;;4139984;28;20433;-61
2022/01/31 11:44:22;;;;;;;;;;;5.00;90.50;;;;;;4155400;28;21510;-56
2022/01/31 11:46:26;;;;;;;;;;;4.90;91.00;;;;;;4157040;28;19975;-64
2022/01/31 11:48:29;;;;;;;;;;;4.90;92.10;;;;;;4157348;28;20373;-58
2022/01/31 11:50:31;;;;;;;;;;;4.90;91.60;;;;;;4157129;28;20281;-55
2022/01/31 11:52:42;;;;;;;;;;;5.00;91.10;;;;;;4157256;28;20324;-54
2022/01/31 11:54:48;;;;;;;;;;;5.00;91.20;;;;;;4157353;28;19925;-58
2022/01/31 11:56:51;;;;;;;;;;;5.00;91.00;;;;;;4157195;28;19917;-59
2022/01/31 11:58:53;;;;;;;;;;;5.00;91.00;;;;;;4156699;28;19917;-60
2022/01/31 12:00:54;;;;;;;;;;;5.00;91.20;;;;;;4157131;28;19967;-55
2022/01/31 12:03:00;;;;;;;;;;;5.10;91.40;;;;;;4157639;28;19913;-55
2022/01/31 12:05:05;;;;;;;;;;;5.20;90.60;;;;;;4154153;28;19983;-63
2022/01/31 12:07:25;;;;;;;;;;;5.30;90.60;;;;;;4158070;28;19960;-61
2022/01/31 12:09:28;;;;;;;;;;;5.40;90.00;;;;;;4156511;28;20262;-56
2022/01/31 12:11:31;;;;;;;;;;;5.40;88.90;;;;;;4139585;28;19925;-62
2022/01/31 12:13:46;;;;;;;;;;;5.50;89.10;;;;;;4155795;28;19909;-58
2022/01/31 12:18:19;;;;;;;;;;;5.50;88.70;;;;;;4156142;28;19996;-62
2022/01/31 12:21:59;;;;;;;;;;;5.40;88.90;;;;;;4140775;28;20402;-60
2022/01/31 12:23:00;;;;;;;;;;;5.40;88.50;;;;;;4155153;28;19995;-59
2022/01/31 12:25:19;;;;;;;;;;;5.40;88.10;;;;;;4156238;28;19925;-66
2022/01/31 12:27:28;;;;;;;;;;;5.30;87.60;;;;;;4157402;28;20352;-58
2022/01/31 12:29:30;;;;;;;;;;;5.40;88.30;;;;;;4147351;28;19975;-60